Time;durP1;ratioP1;P1;durP2;ratioP2;P2;SDS_P1;SDS_P2;PMS_P1;PMS_P2;Temp;Humidity;BMP_temperature;BMP_pressure;BME280_temperature;BME280_humidity;BME280_pressure;Samples;Min_cycle;Max_cycle;Signal;HPM_P1;HPM_P2
2023/05/08 00:00:26;;;;;;;7.00;3.55;;;12.50;99.90;;;;;;5090981;28;20040;-70
2023/05/08 00:02:52;;;;;;;6.40;3.53;;;12.50;99.90;;;;;;5091565;28;20047;-71
2023/05/08 00:05:18;;;;;;;6.38;3.38;;;12.50;99.90;;;;;;5074671;28;20155;-71
2023/05/08 00:07:43;;;;;;;7.18;3.33;;;12.50;99.90;;;;;;5091028;28;20042;-71
2023/05/08 00:10:10;;;;;;;7.40;3.88;;;12.50;99.90;;;;;;5091399;28;20542;-71
2023/05/08 00:12:36;;;;;;;5.53;3.45;;;12.50;99.90;;;;;;5074106;28;20105;-71
2023/05/08 00:15:03;;;;;;;7.35;3.85;;;12.50;99.90;;;;;;5092813;28;20506;-71
2023/05/08 00:17:29;;;;;;;6.68;3.55;;;12.50;99.90;;;;;;5092992;28;20097;-71
2023/05/08 00:19:55;;;;;;;6.72;3.25;;;12.50;99.90;;;;;;5090865;28;20363;-71
2023/05/08 00:22:21;;;;;;;5.72;2.90;;;12.40;99.90;;;;;;5091127;28;20040;-71
2023/05/08 00:24:47;;;;;;;8.73;4.07;;;12.40;99.90;;;;;;5092438;28;20036;-70
2023/05/08 00:27:13;;;;;;;7.65;3.50;;;12.50;99.90;;;;;;5090566;28;20039;-71
2023/05/08 00:29:39;;;;;;;8.40;3.65;;;12.40;99.90;;;;;;5091316;28;20486;-71
2023/05/08 00:32:08;;;;;;;8.52;4.63;;;12.40;99.90;;;;;;5074360;28;20032;-71
2023/05/08 00:34:34;;;;;;;5.40;3.33;;;12.40;99.90;;;;;;5090709;28;20123;-71
2023/05/08 00:37:02;;;;;;;7.93;3.88;;;12.40;99.90;;;;;;5092240;28;20077;-71
2023/05/08 00:39:28;;;;;;;7.20;3.85;;;12.40;99.90;;;;;;5090672;28;20048;-71
2023/05/08 00:41:54;;;;;;;6.85;3.75;;;12.40;99.90;;;;;;5090054;28;20040;-71
2023/05/08 00:44:20;;;;;;;6.15;3.55;;;12.40;99.90;;;;;;5092024;28;20032;-71
2023/05/08 00:46:46;;;;;;;7.60;3.28;;;12.40;99.90;;;;;;5090850;28;20040;-70
2023/05/08 00:49:13;;;;;;;8.10;3.30;;;12.40;99.90;;;;;;5090110;28;20043;-71
2023/05/08 00:51:51;;;;;;;9.27;4.30;;;12.30;99.90;;;;;;5091993;28;20517;-71
2023/05/08 00:54:18;;;;;;;8.18;3.42;;;12.30;99.90;;;;;;5090574;28;20126;-71
2023/05/08 00:56:44;;;;;;;7.57;3.55;;;12.30;99.90;;;;;;5089901;28;20044;-70
2023/05/08 00:59:13;;;;;;;6.15;3.47;;;12.20;99.90;;;;;;5073841;28;20035;-71
2023/05/08 01:01:40;;;;;;;6.72;3.28;;;12.20;99.90;;;;;;5091358;28;20113;-70
2023/05/08 01:04:06;;;;;;;5.03;2.97;;;12.20;99.90;;;;;;5090312;28;20036;-70
2023/05/08 01:06:33;;;;;;;9.77;4.43;;;12.20;99.90;;;;;;5090531;28;20488;-71
2023/05/08 01:08:59;;;;;;;6.72;3.45;;;12.20;99.90;;;;;;5091381;28;20114;-71
2023/05/08 01:11:31;;;;;;;6.82;4.18;;;12.10;99.90;;;;;;5089773;28;20464;-70
2023/05/08 01:14:14;;;;;;;8.95;3.75;;;12.10;99.90;;;;;;5073247;28;20052;-70
2023/05/08 01:17:05;;;;;;;7.70;3.85;;;12.00;99.90;;;;;;5089715;28;20109;-70
2023/05/08 01:19:33;;;;;;;7.60;3.55;;;12.00;99.90;;;;;;5090397;28;20042;-69
2023/05/08 01:22:44;;;;;;;9.23;4.68;;;12.00;99.90;;;;;;5090001;28;20486;-69
2023/05/08 01:25:23;;;;;;;7.13;3.53;;;12.00;99.90;;;;;;5069943;28;20052;-69
2023/05/08 01:28:03;;;;;;;7.38;4.60;;;11.90;99.90;;;;;;5089980;28;20048;-70
2023/05/08 01:30:44;;;;;;;9.20;4.07;;;11.90;99.90;;;;;;5072458;28;20071;-69
2023/05/08 01:33:17;;;;;;;7.57;3.70;;;11.90;99.90;;;;;;5072859;28;20032;-70
2023/05/08 01:35:49;;;;;;;8.35;3.72;;;11.80;99.90;;;;;;5089887;28;20040;-70
2023/05/08 01:38:24;;;;;;;8.57;3.58;;;11.80;99.90;;;;;;5089465;28;20371;-70
2023/05/08 01:41:00;;;;;;;6.97;3.53;;;11.80;99.90;;;;;;5089823;28;20040;-70
2023/05/08 01:43:37;;;;;;;8.00;4.40;;;11.70;99.90;;;;;;5089308;28;20090;-70
2023/05/08 01:46:08;;;;;;;10.40;3.97;;;11.60;99.90;;;;;;5089666;28;20036;-70
2023/05/08 01:48:40;;;;;;;8.00;3.92;;;11.60;99.90;;;;;;5090774;28;20460;-70
2023/05/08 01:51:13;;;;;;;6.80;3.80;;;11.50;99.90;;;;;;5089093;28;20047;-70
2023/05/08 01:53:43;;;;;;;7.35;3.60;;;11.50;99.90;;;;;;5072600;28;20078;-70
2023/05/08 01:56:13;;;;;;;7.47;3.75;;;11.40;99.90;;;;;;5090823;28;20474;-70
2023/05/08 01:58:40;;;;;;;7.10;3.97;;;11.40;99.90;;;;;;5090271;28;20375;-70
2023/05/08 02:01:07;;;;;;;6.60;3.53;;;11.30;99.90;;;;;;5090805;28;20469;-70
2023/05/08 02:03:36;;;;;;;8.77;3.65;;;11.30;99.90;;;;;;5090794;28;20091;-70
2023/05/08 02:06:03;;;;;;;7.25;3.95;;;11.30;99.90;;;;;;5088580;28;20044;-70
2023/05/08 02:08:31;;;;;;;6.97;3.22;;;11.30;99.90;;;;;;5090812;28;20069;-70
2023/05/08 02:10:59;;;;;;;8.07;4.13;;;11.30;99.90;;;;;;5090084;28;20529;-70
2023/05/08 02:13:26;;;;;;;8.13;3.00;;;11.30;99.90;;;;;;5108646;28;20404;-70
2023/05/08 02:15:54;;;;;;;8.15;3.90;;;11.30;99.90;;;;;;5092531;28;20405;-70
2023/05/08 02:18:22;;;;;;;8.80;3.78;;;11.30;99.90;;;;;;5109417;28;20110;-70
2023/05/08 02:20:50;;;;;;;8.05;3.72;;;11.30;99.90;;;;;;5092193;28;20063;-70
2023/05/08 02:23:18;;;;;;;7.85;4.20;;;11.20;99.90;;;;;;5108843;28;20035;-69
2023/05/08 02:25:46;;;;;;;7.70;3.95;;;11.20;99.90;;;;;;5109042;28;20031;-70
2023/05/08 02:28:14;;;;;;;11.45;3.55;;;11.20;99.90;;;;;;5110906;28;20035;-70
2023/05/08 02:30:41;;;;;;;6.68;3.20;;;11.20;99.90;;;;;;5110777;28;20044;-70
2023/05/08 02:33:09;;;;;;;5.88;3.70;;;11.10;99.90;;;;;;5108607;28;20044;-70
2023/05/08 02:35:37;;;;;;;6.72;3.92;;;11.20;99.90;;;;;;5109432;28;20040;-70
2023/05/08 02:38:09;;;;;;;9.30;3.60;;;11.10;99.90;;;;;;5110622;28;20059;-70
2023/05/08 02:40:37;;;;;;;7.22;3.25;;;11.10;99.90;;;;;;5108996;28;20036;-70
2023/05/08 02:43:04;;;;;;;6.75;3.63;;;11.20;99.90;;;;;;5109379;28;20043;-70
2023/05/08 02:45:48;;;;;;;7.97;3.88;;;11.20;99.90;;;;;;5109027;28;20048;-70
2023/05/08 02:48:20;;;;;;;5.88;3.40;;;11.20;99.90;;;;;;5108661;28;20075;-70
2023/05/08 02:51:07;;;;;;;6.55;3.33;;;11.20;99.90;;;;;;5109438;28;20082;-70
2023/05/08 02:53:49;;;;;;;10.15;3.58;;;11.30;99.90;;;;;;5091582;28;20058;-70
2023/05/08 02:56:31;;;;;;;10.32;4.07;;;11.30;99.90;;;;;;5109098;28;20595;-70
2023/05/08 02:59:15;;;;;;;7.13;3.17;;;11.30;99.90;;;;;;5092161;28;20040;-70
2023/05/08 03:02:05;;;;;;;10.43;3.75;;;11.40;99.90;;;;;;5109726;28;20039;-70
2023/05/08 03:04:40;;;;;;;7.45;3.92;;;11.40;99.90;;;;;;5094406;28;20051;-70
2023/05/08 03:07:06;;;;;;;9.32;3.47;;;11.50;99.90;;;;;;5092263;28;20047;-70
2023/05/08 03:09:41;;;;;;;8.63;3.65;;;11.50;99.90;;;;;;5109837;28;20048;-70
2023/05/08 03:12:14;;;;;;;9.65;4.05;;;11.50;99.90;;;;;;5109232;28;20040;-70
2023/05/08 03:14:46;;;;;;;7.97;3.30;;;11.50;99.90;;;;;;5109492;28;20440;-70
2023/05/08 03:17:15;;;;;;;8.60;4.20;;;11.40;99.90;;;;;;5108995;28;20126;-70
2023/05/08 03:19:45;;;;;;;5.43;3.00;;;11.50;99.90;;;;;;5108956;28;20075;-70
2023/05/08 03:22:14;;;;;;;7.30;3.05;;;11.50;99.90;;;;;;5108596;28;20311;-70
2023/05/08 03:24:43;;;;;;;7.25;3.45;;;11.40;99.90;;;;;;5110336;28;20040;-70
2023/05/08 03:27:09;;;;;;;8.73;3.72;;;11.40;99.90;;;;;;5108717;28;20093;-70
2023/05/08 03:29:37;;;;;;;7.50;3.78;;;11.40;99.90;;;;;;5091185;28;20067;-70
2023/05/08 03:32:03;;;;;;;6.97;3.85;;;11.40;99.90;;;;;;5110133;28;20050;-70
2023/05/08 03:34:30;;;;;;;6.78;3.80;;;11.30;99.90;;;;;;5112756;28;20075;-70
2023/05/08 03:36:56;;;;;;;6.05;3.50;;;11.30;99.90;;;;;;5112077;28;20035;-69
2023/05/08 03:39:23;;;;;;;8.23;3.70;;;11.20;99.90;;;;;;5112431;28;20556;-70
2023/05/08 03:41:50;;;;;;;6.80;3.03;;;11.20;99.90;;;;;;5112456;28;20048;-70
2023/05/08 03:44:17;;;;;;;7.97;3.40;;;11.10;99.90;;;;;;5111730;28;20043;-70
2023/05/08 03:46:45;;;;;;;7.95;3.15;;;11.10;99.90;;;;;;5113419;28;20078;-70
2023/05/08 03:49:13;;;;;;;6.22;3.47;;;11.10;99.90;;;;;;5113659;28;20039;-69
2023/05/08 03:51:39;;;;;;;7.13;3.58;;;11.00;99.90;;;;;;5111729;28;20050;-70
2023/05/08 03:54:05;;;;;;;7.25;3.90;;;11.00;99.90;;;;;;5112164;28;20043;-70
2023/05/08 03:56:32;;;;;;;6.43;3.80;;;11.00;99.90;;;;;;5113432;28;20040;-69
2023/05/08 03:59:13;;;;;;;6.22;3.63;;;10.90;99.90;;;;;;5113560;28;20039;-70
2023/05/08 04:01:47;;;;;;;7.40;4.13;;;10.90;99.90;;;;;;5111971;28;20039;-69
2023/05/08 04:04:23;;;;;;;8.40;3.33;;;10.80;99.90;;;;;;5111316;28;20048;-69
2023/05/08 04:06:51;;;;;;;9.10;4.07;;;10.80;99.90;;;;;;5113154;28;20123;-69
2023/05/08 04:09:25;;;;;;;8.70;3.70;;;10.80;99.90;;;;;;5111755;28;20042;-70
2023/05/08 04:12:14;;;;;;;8.50;3.65;;;10.80;99.90;;;;;;5111288;28;20054;-70
2023/05/08 04:14:54;;;;;;;6.22;3.30;;;10.70;99.90;;;;;;5111650;28;20052;-69
2023/05/08 04:17:52;;;;;;;7.10;3.90;;;10.70;99.90;;;;;;5112970;28;20047;-69
2023/05/08 04:20:25;;;;;;;7.93;4.03;;;10.70;99.90;;;;;;5095019;28;20040;-70
2023/05/08 04:22:53;;;;;;;5.72;3.30;;;10.70;99.90;;;;;;5113276;28;20043;-70
2023/05/08 04:25:20;;;;;;;7.28;3.45;;;10.70;99.90;;;;;;5112525;28;20036;-70
2023/05/08 04:27:50;;;;;;;7.07;4.10;;;10.60;99.90;;;;;;5111517;28;20465;-69
2023/05/08 04:30:16;;;;;;;7.40;4.10;;;10.60;99.90;;;;;;5094382;28;20071;-69
2023/05/08 04:32:43;;;;;;;9.00;3.92;;;10.60;99.90;;;;;;5112379;28;20047;-70
2023/05/08 04:35:10;;;;;;;9.45;3.58;;;10.60;99.90;;;;;;5111273;28;20036;-69
2023/05/08 04:37:35;;;;;;;6.05;3.30;;;10.60;99.90;;;;;;5111490;28;20047;-69
2023/05/08 04:40:03;;;;;;;7.70;3.08;;;10.60;99.90;;;;;;5112211;28;20052;-69
2023/05/08 04:42:29;;;;;;;7.50;4.22;;;10.60;99.90;;;;;;5111539;28;20039;-69
2023/05/08 04:44:55;;;;;;;9.23;4.20;;;10.60;99.90;;;;;;5111324;28;20036;-70
2023/05/08 04:47:22;;;;;;;7.72;3.80;;;10.60;99.90;;;;;;5110273;28;20485;-70
2023/05/08 04:49:50;;;;;;;8.57;3.65;;;10.60;99.90;;;;;;5111003;28;20047;-70
2023/05/08 04:52:15;;;;;;;7.95;3.30;;;10.70;99.90;;;;;;5111089;28;20071;-70
2023/05/08 04:54:41;;;;;;;7.25;3.60;;;10.70;99.90;;;;;;5110643;28;20085;-69
2023/05/08 04:57:07;;;;;;;8.57;3.75;;;10.80;99.90;;;;;;5112430;28;20523;-70
2023/05/08 04:59:33;;;;;;;6.00;3.05;;;10.90;99.90;;;;;;5110574;28;20044;-70
2023/05/08 05:02:01;;;;;;;6.60;2.78;;;10.90;99.90;;;;;;5112135;28;20047;-67
2023/05/08 05:04:28;;;;;;;5.68;3.50;;;10.90;99.90;;;;;;5110983;28;20377;-67
2023/05/08 05:06:54;;;;;;;10.65;4.22;;;11.00;99.90;;;;;;5110107;28;20118;-66
2023/05/08 05:09:19;;;;;;;5.28;3.33;;;11.00;99.90;;;;;;5110682;28;20127;-67
2023/05/08 05:11:45;;;;;;;6.82;3.47;;;11.10;99.90;;;;;;5110622;28;20032;-66
2023/05/08 05:14:11;;;;;;;7.10;3.08;;;11.20;99.90;;;;;;5110064;28;20108;-67
2023/05/08 05:16:37;;;;;;;7.32;3.47;;;11.20;99.90;;;;;;5111825;28;20122;-67
2023/05/08 05:19:03;;;;;;;8.07;3.63;;;11.20;99.90;;;;;;5110282;28;20130;-68
2023/05/08 05:21:29;;;;;;;7.32;3.33;;;11.30;99.90;;;;;;5110085;28;20043;-67
2023/05/08 05:23:55;;;;;;;5.00;3.08;;;11.40;99.90;;;;;;5110477;28;20153;-67
2023/05/08 05:26:22;;;;;;;6.93;3.67;;;11.50;99.90;;;;;;5111927;28;20032;-67
2023/05/08 05:28:47;;;;;;;7.95;3.75;;;11.50;99.90;;;;;;5109619;28;20043;-68
2023/05/08 05:31:13;;;;;;;6.93;3.25;;;11.60;99.90;;;;;;5110175;28;20047;-67
2023/05/08 05:33:39;;;;;;;5.53;2.90;;;11.70;99.90;;;;;;5111551;28;20038;-67
2023/05/08 05:36:06;;;;;;;5.22;2.75;;;11.70;99.90;;;;;;5109685;28;20039;-67
2023/05/08 05:38:32;;;;;;;5.95;3.10;;;11.80;99.90;;;;;;5110407;28;20394;-66
2023/05/08 05:40:58;;;;;;;8.13;3.88;;;11.90;99.90;;;;;;5111547;28;20077;-67
2023/05/08 05:43:24;;;;;;;6.47;3.03;;;12.00;99.90;;;;;;5111045;28;20127;-68
2023/05/08 05:45:50;;;;;;;7.93;3.95;;;12.10;99.90;;;;;;5109812;28;20464;-67
2023/05/08 05:48:15;;;;;;;7.43;3.30;;;12.20;99.90;;;;;;5111203;28;20038;-67
2023/05/08 05:50:41;;;;;;;7.45;3.33;;;12.30;99.90;;;;;;5110803;28;20481;-67
2023/05/08 05:53:08;;;;;;;8.98;4.43;;;12.40;99.90;;;;;;5111237;28;20039;-67
2023/05/08 05:55:34;;;;;;;6.07;3.13;;;12.40;99.90;;;;;;5109090;28;20039;-67
2023/05/08 05:58:00;;;;;;;7.55;3.85;;;12.60;99.90;;;;;;5111270;28;20042;-68
2023/05/08 06:00:26;;;;;;;5.28;2.72;;;12.60;99.90;;;;;;5111013;28;20039;-68
2023/05/08 06:02:52;;;;;;;8.05;3.63;;;12.70;99.90;;;;;;5110579;28;20036;-67
2023/05/08 06:05:18;;;;;;;5.95;3.28;;;12.70;99.90;;;;;;5110775;28;20404;-68
2023/05/08 06:07:45;;;;;;;8.88;3.55;;;12.80;99.90;;;;;;5109556;28;20044;-67
2023/05/08 06:10:12;;;;;;;4.35;3.15;;;12.90;99.90;;;;;;5109900;28;20462;-68
2023/05/08 06:12:38;;;;;;;5.85;3.30;;;13.00;99.90;;;;;;5109377;28;20084;-68
2023/05/08 06:15:05;;;;;;;6.57;3.70;;;13.10;99.90;;;;;;5110495;28;20442;-67
2023/05/08 06:17:30;;;;;;;5.55;3.42;;;13.20;99.90;;;;;;5110181;28;20398;-68
2023/05/08 06:19:56;;;;;;;6.72;4.15;;;13.30;99.90;;;;;;5110804;28;20047;-68
2023/05/08 06:22:23;;;;;;;5.75;3.00;;;13.40;99.90;;;;;;5109792;28;20075;-67
2023/05/08 06:24:52;;;;;;;7.95;2.65;;;13.50;99.90;;;;;;5108853;28;20440;-68
2023/05/08 06:27:23;;;;;;;6.40;3.78;;;13.60;99.90;;;;;;5110578;28;20035;-67
2023/05/08 06:29:51;;;;;;;5.38;3.25;;;13.70;99.90;;;;;;5109221;28;20089;-68
2023/05/08 06:32:18;;;;;;;5.65;3.03;;;13.60;99.90;;;;;;5108638;28;20081;-68
2023/05/08 06:34:44;;;;;;;6.95;3.70;;;13.50;99.90;;;;;;5110885;28;20044;-68
2023/05/08 06:37:10;;;;;;;6.93;3.33;;;13.40;99.90;;;;;;5109230;28;20047;-68
2023/05/08 06:39:36;;;;;;;6.20;3.33;;;13.30;99.90;;;;;;5110176;28;20123;-67
2023/05/08 06:42:03;;;;;;;5.03;2.95;;;13.30;99.90;;;;;;5110730;28;20119;-67
2023/05/08 06:44:29;;;;;;;5.95;3.60;;;13.20;99.90;;;;;;5109093;28;20047;-66
2023/05/08 06:46:55;;;;;;;5.20;3.15;;;13.20;99.90;;;;;;5108531;28;20119;-68
2023/05/08 06:49:21;;;;;;;6.60;3.08;;;13.10;99.90;;;;;;5108872;28;20118;-67
2023/05/08 06:51:47;;;;;;;5.70;2.97;;;13.10;99.90;;;;;;5108653;28;20050;-67
2023/05/08 06:54:13;;;;;;;5.00;2.95;;;13.30;99.90;;;;;;5109151;28;20036;-67
2023/05/08 06:56:39;;;;;;;5.88;3.05;;;13.50;99.90;;;;;;5109332;28;20039;-68
2023/05/08 06:59:05;;;;;;;7.43;3.60;;;13.80;99.90;;;;;;5109971;28;20046;-67
2023/05/08 07:01:32;;;;;;;6.55;3.42;;;14.10;99.90;;;;;;5109208;28;20089;-68
2023/05/08 07:04:01;;;;;;;3.90;2.50;;;14.30;99.90;;;;;;5109017;28;20324;-67
2023/05/08 07:06:28;;;;;;;;;;;14.40;99.90;;;;;;5109535;28;20074;-66
2023/05/08 07:08:53;;;;;;;5.53;3.13;;;14.60;99.90;;;;;;5112399;28;19920;-67
2023/05/08 07:11:19;;;;;;;5.88;3.00;;;14.80;99.90;;;;;;5095946;28;20485;-66
2023/05/08 07:13:47;;;;;;;4.82;3.13;;;15.10;99.90;;;;;;5113572;28;20059;-67
2023/05/08 07:16:14;;;;;;;7.15;4.10;;;15.30;99.90;;;;;;5112964;28;20048;-65
2023/05/08 07:18:40;;;;;;;5.78;2.53;;;15.50;99.90;;;;;;5095912;28;20413;-65
2023/05/08 07:21:06;;;;;;;4.50;2.42;;;15.70;99.90;;;;;;5112542;28;20458;-66
2023/05/08 07:23:32;;;;;;;6.13;3.08;;;15.80;99.90;;;;;;5112773;28;20071;-65
2023/05/08 07:25:58;;;;;;;4.15;2.70;;;16.00;99.90;;;;;;5112765;28;20082;-65
2023/05/08 07:28:24;;;;;;;3.97;2.47;;;16.20;99.90;;;;;;5112068;28;20043;-66
2023/05/08 07:30:50;;;;;;;5.50;3.83;;;16.30;99.90;;;;;;5095840;28;20047;-66
2023/05/08 07:33:16;;;;;;;6.68;3.25;;;16.40;99.90;;;;;;5114073;28;20061;-65
2023/05/08 07:35:42;;;;;;;8.63;3.05;;;16.60;99.90;;;;;;5113475;28;20115;-66
2023/05/08 07:38:08;;;;;;;5.53;3.15;;;17.00;99.90;;;;;;5112697;28;20197;-66
2023/05/08 07:40:34;;;;;;;7.47;3.42;;;17.30;99.90;;;;;;5112046;28;20122;-65
2023/05/08 07:43:00;;;;;;;7.28;3.40;;;17.60;99.90;;;;;;5112392;28;20035;-65
2023/05/08 07:45:26;;;;;;;6.10;3.15;;;18.00;99.90;;;;;;5113622;28;20040;-66
2023/05/08 07:47:54;;;;;;;6.78;3.50;;;18.20;99.90;;;;;;5113135;28;20032;-66
2023/05/08 07:50:22;;;;;;;5.68;2.55;;;18.30;99.90;;;;;;5112620;28;20381;-66
2023/05/08 07:52:49;;;;;;;7.05;4.07;;;18.30;99.90;;;;;;5112503;28;20389;-66
2023/05/08 07:55:15;;;;;;;5.20;2.75;;;18.10;99.90;;;;;;5113027;28;20036;-66
2023/05/08 07:57:42;;;;;;;7.03;3.05;;;17.80;99.90;;;;;;5113644;28;20044;-66
2023/05/08 08:00:12;;;;;;;6.10;3.03;;;17.50;99.90;;;;;;5112299;28;20382;-65
2023/05/08 08:02:38;;;;;;;6.95;3.63;;;17.40;99.90;;;;;;5111339;28;20042;-66
2023/05/08 08:05:05;;;;;;;5.50;3.63;;;17.20;99.90;;;;;;5113199;28;20032;-66
2023/05/08 08:07:34;;;;;;;5.43;3.03;;;17.10;99.90;;;;;;5112149;28;20032;-66
2023/05/08 08:10:02;;;;;;;5.05;3.05;;;16.90;99.90;;;;;;5111326;28;20040;-65
2023/05/08 08:12:28;;;;;;;5.55;3.08;;;16.90;99.90;;;;;;5113170;28;20082;-66
2023/05/08 08:14:54;;;;;;;4.97;2.47;;;17.00;99.90;;;;;;5112889;28;20079;-65
2023/05/08 08:17:20;;;;;;;6.18;3.17;;;17.10;99.90;;;;;;5110913;28;20051;-66
2023/05/08 08:19:45;;;;;;;4.88;3.13;;;17.10;99.90;;;;;;5111747;28;20076;-66
2023/05/08 08:22:11;;;;;;;5.55;2.97;;;17.30;99.90;;;;;;5111828;28;20489;-67
2023/05/08 08:24:37;;;;;;;5.57;3.13;;;17.40;99.90;;;;;;5110984;28;20122;-66
2023/05/08 08:27:03;;;;;;;4.85;3.08;;;17.40;99.90;;;;;;5111560;28;20043;-65
2023/05/08 08:29:29;;;;;;;6.20;2.85;;;17.40;99.90;;;;;;5111491;28;20036;-65
2023/05/08 08:31:55;;;;;;;4.95;2.50;;;17.40;99.90;;;;;;5112485;28;20031;-66
2023/05/08 08:34:21;;;;;;;6.82;3.40;;;17.50;99.90;;;;;;5111884;28;20375;-65
2023/05/08 08:36:47;;;;;;;5.07;3.13;;;17.50;99.90;;;;;;5092305;28;20051;-66
2023/05/08 08:39:13;;;;;;;4.70;3.00;;;17.40;99.90;;;;;;5110234;28;20051;-66
2023/05/08 08:41:39;;;;;;;7.28;4.05;;;17.30;99.90;;;;;;5110112;28;20090;-66
2023/05/08 08:44:05;;;;;;;5.85;3.40;;;17.30;99.90;;;;;;5109423;28;20044;-66
2023/05/08 08:46:32;;;;;;;8.27;3.28;;;17.20;99.90;;;;;;5110107;28;20122;-66
2023/05/08 08:49:01;;;;;;;5.35;3.38;;;17.20;99.90;;;;;;5109832;28;20032;-66
2023/05/08 08:51:34;;;;;;;6.40;3.72;;;17.20;99.90;;;;;;5109321;28;20043;-66
2023/05/08 08:54:08;;;;;;;7.22;3.85;;;17.30;99.90;;;;;;5109846;28;20044;-66
2023/05/08 08:56:37;;;;;;;5.88;3.17;;;17.50;99.90;;;;;;5109733;28;20075;-66
2023/05/08 08:59:04;;;;;;;6.72;3.45;;;17.70;99.90;;;;;;5109023;28;20039;-65
2023/05/08 09:01:34;;;;;;;5.18;3.20;;;18.00;99.90;;;;;;5110970;28;20044;-66
2023/05/08 09:04:01;;;;;;;6.05;3.55;;;18.20;99.90;;;;;;5092449;28;20451;-66
2023/05/08 09:06:28;;;;;;;7.47;3.63;;;18.40;99.90;;;;;;5109118;28;20101;-66
2023/05/08 09:08:57;;;;;;;7.40;4.32;;;18.70;99.90;;;;;;5109674;28;20085;-66
2023/05/08 09:11:23;;;;;;;6.10;3.58;;;18.90;99.90;;;;;;5110605;28;20046;-66
2023/05/08 09:13:50;;;;;;;6.97;3.42;;;19.20;99.90;;;;;;5109038;28;20048;-66
2023/05/08 09:16:16;;;;;;;7.57;3.97;;;19.50;99.90;;;;;;5110818;28;20031;-67
2023/05/08 09:18:42;;;;;;;7.68;4.22;;;19.70;99.90;;;;;;5108625;28;20070;-66
2023/05/08 09:21:08;;;;;;;6.15;3.63;;;19.90;99.90;;;;;;5110758;28;20070;-66
2023/05/08 09:23:58;;;;;;;5.82;4.00;;;20.00;99.90;;;;;;5109467;28;20035;-66
2023/05/08 09:26:39;;;;;;;5.13;3.28;;;20.40;99.90;;;;;;5098770;28;20374;-66
2023/05/08 09:29:15;;;;;;;6.78;4.32;;;20.60;99.90;;;;;;5109260;28;20116;-66
2023/05/08 09:31:51;;;;;;;7.53;3.90;;;20.80;99.90;;;;;;5110071;28;20070;-67
2023/05/08 09:34:31;;;;;;;6.75;3.65;;;21.00;99.90;;;;;;5108549;28;20120;-67
2023/05/08 09:37:18;;;;;;;13.48;4.30;;;21.10;99.90;;;;;;5091808;28;20040;-66
2023/05/08 09:39:46;;;;;;;6.82;3.90;;;21.30;99.90;;;;;;5107808;28;20052;-66
2023/05/08 09:42:12;;;;;;;7.40;3.63;;;21.50;99.90;;;;;;5110097;28;20100;-67
2023/05/08 09:44:52;;;;;;;7.55;3.85;;;21.60;99.90;;;;;;5108909;28;20050;-65
2023/05/08 09:47:23;;;;;;;5.28;3.35;;;21.60;99.90;;;;;;5109344;28;20473;-67
2023/05/08 09:50:04;;;;;;;8.02;3.70;;;21.90;99.90;;;;;;5109848;28;20524;-66
2023/05/08 09:52:31;;;;;;;5.85;3.10;;;22.10;99.90;;;;;;5109952;28;20027;-66
2023/05/08 09:55:03;;;;;;;6.40;3.45;;;22.30;99.90;;;;;;5107911;28;20054;-66
2023/05/08 09:57:30;;;;;;;7.55;3.80;;;22.60;99.90;;;;;;5108761;28;20089;-66
2023/05/08 10:00:14;;;;;;;6.95;3.67;;;22.90;99.90;;;;;;5108475;28;20051;-66
2023/05/08 10:02:52;;;;;;;7.93;4.05;;;23.20;99.90;;;;;;5109107;28;20036;-67
2023/05/08 10:05:25;;;;;;;7.70;4.53;;;23.20;99.90;;;;;;5109910;28;20035;-67
2023/05/08 10:07:50;;;;;;;6.57;3.92;;;23.20;99.90;;;;;;5107651;28;20088;-67
2023/05/08 10:10:25;;;;;;;6.43;3.97;;;23.30;99.90;;;;;;5108165;28;20040;-67
2023/05/08 10:12:52;;;;;;;6.45;3.60;;;23.30;99.90;;;;;;5091441;28;20035;-66
2023/05/08 10:15:20;;;;;;;6.70;3.55;;;23.40;99.90;;;;;;5107726;28;20052;-65
2023/05/08 10:18:06;;;;;;;6.30;3.55;;;23.40;99.90;;;;;;5091338;28;20082;-67
2023/05/08 10:20:38;;;;;;;5.35;2.95;;;23.30;99.90;;;;;;5109317;28;20075;-67
2023/05/08 10:23:10;;;;;;;8.80;4.00;;;23.30;99.90;;;;;;5109117;28;20036;-67
2023/05/08 10:25:42;;;;;;;8.50;4.18;;;23.20;99.90;;;;;;5108313;28;20043;-67
2023/05/08 10:28:21;;;;;;;7.97;4.40;;;23.10;99.90;;;;;;5108329;28;20089;-66
2023/05/08 10:30:48;;;;;;;8.80;4.63;;;23.00;99.90;;;;;;5108565;28;20100;-66
2023/05/08 10:33:19;;;;;;;6.90;4.10;;;22.70;99.90;;;;;;5109502;28;20039;-67
2023/05/08 10:35:46;;;;;;;6.78;4.15;;;22.50;99.90;;;;;;5107638;28;20456;-66
2023/05/08 10:38:15;;;;;;;7.28;3.97;;;22.30;99.90;;;;;;5109090;28;20039;-66
2023/05/08 10:40:41;;;;;;;8.13;3.73;;;22.10;99.90;;;;;;5107946;28;20039;-67
2023/05/08 10:43:08;;;;;;;6.55;3.40;;;21.90;99.90;;;;;;5106318;28;20105;-66
2023/05/08 10:45:36;;;;;;;7.43;4.20;;;21.70;99.90;;;;;;5109538;28;20106;-66
2023/05/08 10:48:39;;;;;;;6.10;3.13;;;21.70;99.90;;;;;;5107881;28;20039;-66
2023/05/08 10:51:09;;;;;;;8.93;4.30;;;21.70;99.90;;;;;;5108411;28;20046;-66
2023/05/08 10:53:54;;;;;;;8.70;4.20;;;21.60;99.90;;;;;;5109208;28;20470;-66
2023/05/08 10:56:27;;;;;;;6.47;3.58;;;21.70;99.90;;;;;;5107760;28;20043;-66
2023/05/08 10:58:57;;;;;;;7.18;3.75;;;21.90;99.90;;;;;;5108550;28;20047;-66
2023/05/08 11:01:24;;;;;;;7.13;4.18;;;22.00;99.90;;;;;;5108152;28;20051;-66
2023/05/08 11:03:50;;;;;;;8.45;3.97;;;22.20;99.90;;;;;;5106868;28;20075;-66
2023/05/08 11:06:17;;;;;;;7.60;3.95;;;22.20;99.90;;;;;;5109185;28;20367;-66
2023/05/08 11:08:46;;;;;;;7.65;4.28;;;22.30;99.90;;;;;;5109375;28;20073;-66
2023/05/08 11:11:22;;;;;;;8.15;4.47;;;22.40;99.90;;;;;;5106996;28;20042;-65
2023/05/08 11:13:59;;;;;;;8.13;4.18;;;22.60;99.90;;;;;;5108806;28;20063;-67
2023/05/08 11:16:53;;;;;;;6.55;4.15;;;22.60;99.90;;;;;;5107691;28;20044;-66
2023/05/08 11:19:20;;;;;;;8.23;4.43;;;22.60;99.90;;;;;;5107338;28;20075;-66
2023/05/08 11:22:25;;;;;;;9.27;4.65;;;22.50;99.90;;;;;;5109040;28;20417;-67
2023/05/08 11:25:05;;;;;;;8.18;5.25;;;22.30;99.90;;;;;;5107013;28;20418;-67
2023/05/08 11:27:47;;;;;;;10.77;4.78;;;22.10;99.90;;;;;;5107685;28;20406;-66
2023/05/08 11:30:31;;;;;;;8.65;4.85;;;22.00;99.90;;;;;;5090968;28;20152;-66
2023/05/08 11:33:03;;;;;;;9.50;4.57;;;21.90;99.90;;;;;;5106756;28;20031;-66
2023/05/08 11:35:55;;;;;;;9.48;4.88;;;21.70;99.90;;;;;;5090339;28;20035;-65
2023/05/08 11:38:23;;;;;;;7.15;4.32;;;21.70;99.90;;;;;;5108849;28;20070;-66
2023/05/08 11:40:57;;;;;;;10.83;4.93;;;21.70;99.90;;;;;;5107995;28;20032;-66
2023/05/08 11:43:22;;;;;;;10.90;5.55;;;21.60;99.90;;;;;;5107551;28;20417;-66
2023/05/08 11:45:50;;;;;;;7.35;4.10;;;21.60;99.90;;;;;;5108325;28;20035;-67
2023/05/08 11:48:18;;;;;;;10.07;5.93;;;21.60;99.90;;;;;;5107726;28;20063;-66
2023/05/08 11:50:43;;;;;;;11.48;5.45;;;21.60;99.90;;;;;;5108791;28;20039;-66
2023/05/08 11:53:09;;;;;;;10.38;5.38;;;21.60;99.90;;;;;;5106817;28;20055;-67
2023/05/08 11:55:35;;;;;;;8.90;5.65;;;21.70;99.90;;;;;;5110241;28;20101;-66
2023/05/08 11:58:10;;;;;;;9.80;5.65;;;21.70;99.90;;;;;;5112311;28;20044;-66
2023/05/08 12:00:40;;;;;;;11.35;6.00;;;21.70;99.90;;;;;;5111719;28;20055;-66
2023/05/08 12:03:06;;;;;;;10.40;4.82;;;21.90;99.90;;;;;;5112166;28;20459;-66
2023/05/08 12:05:32;;;;;;;10.52;5.10;;;21.90;99.90;;;;;;5093631;28;20065;-66
2023/05/08 12:07:58;;;;;;;10.50;4.97;;;22.00;99.90;;;;;;5111298;28;20050;-66
2023/05/08 12:10:24;;;;;;;9.93;5.00;;;22.20;99.90;;;;;;5112037;28;20393;-67
2023/05/08 12:12:50;;;;;;;11.88;5.65;;;22.20;99.90;;;;;;5112128;27;20047;-66
2023/05/08 12:15:16;;;;;;;10.50;5.32;;;22.20;99.90;;;;;;5109786;28;20112;-67
2023/05/08 12:17:42;;;;;;;10.90;5.68;;;22.20;99.90;;;;;;5110496;28;20039;-66
2023/05/08 12:20:13;;;;;;;12.80;5.80;;;22.20;99.90;;;;;;5093664;28;20036;-67
2023/05/08 12:22:40;;;;;;;10.43;5.28;;;22.10;99.90;;;;;;5092725;28;20046;-66
2023/05/08 12:25:07;;;;;;;9.48;5.10;;;22.00;99.90;;;;;;5093278;28;20043;-66
2023/05/08 12:27:36;;;;;;;10.68;5.30;;;22.00;99.90;;;;;;5110169;28;20742;-66
2023/05/08 12:30:09;;;;;;;11.65;5.78;;;22.00;99.90;;;;;;5111497;28;20050;-66
2023/05/08 12:32:38;;;;;;;17.65;5.90;;;22.00;99.90;;;;;;5110105;28;20045;-67
2023/05/08 12:35:05;;;;;;;13.32;6.88;;;22.00;99.90;;;;;;5109717;28;20101;-67
2023/05/08 12:37:31;;;;;;;12.38;6.90;;;21.90;99.90;;;;;;5110015;28;20046;-67
2023/05/08 12:39:57;;;;;;;11.88;7.25;;;22.00;99.90;;;;;;5110229;28;20048;-66
2023/05/08 12:42:44;;;;;;;11.70;6.00;;;22.00;99.90;;;;;;5110853;28;20425;-66
2023/05/08 12:45:23;;;;;;;11.82;6.30;;;22.00;99.90;;;;;;5111273;28;20501;-66
2023/05/08 12:47:51;;;;;;;13.82;6.57;;;22.00;99.90;;;;;;5110329;28;20127;-66
2023/05/08 12:50:20;;;;;;;12.98;6.63;;;21.90;99.90;;;;;;5109269;28;20043;-66
2023/05/08 12:52:46;;;;;;;10.83;5.60;;;22.00;99.90;;;;;;5111302;28;20511;-66
2023/05/08 12:55:29;;;;;;;10.82;6.07;;;22.10;99.90;;;;;;5110178;28;20035;-66
2023/05/08 12:58:07;;;;;;;13.30;7.25;;;22.20;99.90;;;;;;5092334;28;20149;-66